Aviation Digital Data Service (ADDS)

Output produced by TAFs form (0808 UTC 27 August 2016)
found at http://aviationweather.gov/adds/tafs/
 
KGUP 270520Z 2706/2806 VRB03KT P6SM BKN080 
     FM271600 25006KT P6SM SCT080 
     FM272000 23006KT P6SM VCSH BKN070 
     FM280200 05005KT P6SM SCT100